Time;durP1;ratioP1;P1;durP2;ratioP2;P2;SDS_P1;SDS_P2;PMS_P1;PMS_P2;Temp;Humidity;BMP_temperature;BMP_pressure;BME280_temperature;BME280_humidity;BME280_pressure;Samples;Min_cycle;Max_cycle;Signal;HPM_P1;HPM_P2
2022/10/24 00:00:47;;;;;;;9.55;2.90;;;17.30;99.90;;;;;;5047568;28;25131;-70
2022/10/24 00:03:13;;;;;;;5.32;2.92;;;17.30;99.90;;;;;;5070779;28;25077;-70
2022/10/24 00:05:44;;;;;;;10.52;2.45;;;17.30;99.90;;;;;;5059051;28;25069;-69
2022/10/24 00:08:10;;;;;;;6.32;2.70;;;17.30;99.90;;;;;;5067252;28;25085;-71
2022/10/24 00:10:36;;;;;;;13.27;2.90;;;17.30;99.90;;;;;;5051847;28;25105;-71
2022/10/24 00:13:03;;;;;;;13.55;2.60;;;17.30;99.90;;;;;;5068874;28;25075;-72
2022/10/24 00:15:29;;;;;;;3.88;1.98;;;17.30;99.90;;;;;;5074951;28;25171;-69
2022/10/24 00:17:54;;;;;;;8.20;2.40;;;17.40;99.90;;;;;;5070914;28;25112;-71
2022/10/24 00:20:20;;;;;;;8.45;2.35;;;17.40;99.90;;;;;;5064131;28;25108;-70
2022/10/24 00:22:45;;;;;;;9.75;2.65;;;17.40;99.90;;;;;;5068460;28;25098;-72
2022/10/24 00:25:11;;;;;;;5.90;2.25;;;17.40;99.90;;;;;;5051647;28;25055;-70
2022/10/24 00:27:36;;;;;;;7.25;2.15;;;17.40;99.90;;;;;;5069839;28;24910;-71
2022/10/24 00:30:03;;;;;;;12.98;3.50;;;17.40;99.90;;;;;;5068358;28;25076;-72
2022/10/24 00:32:29;;;;;;;8.80;2.00;;;17.40;99.90;;;;;;5058149;28;25060;-71
2022/10/24 00:34:55;;;;;;;8.25;1.83;;;17.30;99.90;;;;;;5065395;28;25101;-71
2022/10/24 00:37:20;;;;;;;7.68;1.67;;;17.30;99.90;;;;;;5067802;28;25099;-72
2022/10/24 00:39:46;;;;;;;9.27;1.80;;;17.20;99.90;;;;;;5065034;28;25069;-71
2022/10/24 00:42:12;;;;;;;3.20;1.48;;;17.30;99.90;;;;;;5078008;28;25115;-70
2022/10/24 00:44:40;;;;;;;6.45;1.65;;;17.10;99.90;;;;;;5078495;28;25040;-71
2022/10/24 00:47:11;;;;;;;11.18;2.10;;;17.10;99.90;;;;;;5075177;28;25139;-73
2022/10/24 00:50:01;;;;;;;8.23;2.35;;;17.10;99.90;;;;;;5049796;28;25070;-70
2022/10/24 00:52:35;;;;;;;7.53;1.63;;;17.10;99.90;;;;;;5068049;28;25074;-71
2022/10/24 00:55:02;;;;;;;8.85;2.00;;;17.00;99.90;;;;;;5061740;28;25148;-71
2022/10/24 00:57:53;;;;;;;3.97;1.45;;;17.00;99.90;;;;;;5065842;28;25056;-70
2022/10/24 01:00:25;;;;;;;4.90;1.60;;;17.00;99.90;;;;;;5059630;28;25099;-71
2022/10/24 01:02:51;;;;;;;10.90;2.35;;;17.00;99.90;;;;;;5070919;28;25059;-71
2022/10/24 01:05:19;;;;;;;3.95;1.35;;;17.00;99.90;;;;;;5063875;28;25066;-71
2022/10/24 01:07:51;;;;;;;12.20;1.95;;;16.90;99.90;;;;;;5063812;28;25062;-72
2022/10/24 01:10:54;;;;;;;15.05;2.05;;;16.90;99.90;;;;;;5067720;28;25076;-71
2022/10/24 01:13:37;;;;;;;10.20;1.20;;;16.90;99.90;;;;;;5042525;28;25077;-73
2022/10/24 01:16:09;;;;;;;6.13;1.52;;;16.90;99.90;;;;;;5070063;28;25103;-71
2022/10/24 01:18:48;;;;;;;7.28;1.98;;;16.80;99.90;;;;;;5067686;28;25071;-70
2022/10/24 01:22:10;;;;;;;7.13;1.75;;;16.70;99.90;;;;;;5073905;28;25054;-71
2022/10/24 01:25:12;;;;;;;6.60;1.70;;;16.80;99.90;;;;;;4991217;28;25130;-69
2022/10/24 01:27:46;;;;;;;3.27;1.70;;;16.70;99.90;;;;;;5066961;28;25068;-72
2022/10/24 01:30:13;;;;;;;6.78;1.98;;;16.70;99.90;;;;;;5072138;28;25052;-70
2022/10/24 01:33:00;;;;;;;3.53;1.42;;;16.80;99.90;;;;;;5073213;28;25103;-71
2022/10/24 01:35:41;;;;;;;3.20;1.40;;;16.80;99.90;;;;;;5068591;28;25102;-72
2022/10/24 01:38:15;;;;;;;6.00;1.40;;;16.80;99.90;;;;;;5064460;28;25154;-71
2022/10/24 01:41:01;;;;;;;6.15;1.65;;;16.80;99.90;;;;;;5064757;28;25137;-69
2022/10/24 01:43:44;;;;;;;2.92;1.50;;;16.70;99.90;;;;;;5061433;28;25155;-71
2022/10/24 01:46:14;;;;;;;7.70;1.77;;;16.70;99.90;;;;;;5053759;28;25058;-71
2022/10/24 01:48:46;;;;;;;3.63;1.42;;;16.70;99.90;;;;;;5066528;28;25096;-70
2022/10/24 01:51:13;;;;;;;6.88;1.50;;;16.70;99.90;;;;;;5050303;28;25085;-71
2022/10/24 01:53:41;;;;;;;3.97;1.23;;;16.70;99.90;;;;;;5066863;28;25162;-71
2022/10/24 01:56:07;;;;;;;3.35;1.30;;;16.70;99.90;;;;;;5071556;28;25139;-70
2022/10/24 01:58:33;;;;;;;10.52;1.83;;;16.70;99.90;;;;;;5060742;28;25072;-75
2022/10/24 02:01:04;;;;;;;2.78;1.40;;;16.60;99.90;;;;;;5068390;28;25078;-73
2022/10/24 02:03:35;;;;;;;6.03;1.58;;;16.60;99.90;;;;;;5069077;28;25098;-73
2022/10/24 02:06:08;;;;;;;6.82;1.38;;;16.60;99.90;;;;;;5066247;28;25110;-73
2022/10/24 02:08:39;;;;;;;5.68;1.27;;;16.60;99.90;;;;;;5078876;28;25140;-73
2022/10/24 02:11:07;;;;;;;2.42;1.30;;;16.70;99.90;;;;;;5054547;28;25117;-73
2022/10/24 02:13:45;;;;;;;3.33;1.33;;;16.60;99.90;;;;;;5074592;28;25143;-73
2022/10/24 02:16:14;;;;;;;4.18;1.75;;;16.70;99.90;;;;;;5063897;28;25073;-73
2022/10/24 02:18:40;;;;;;;5.53;1.50;;;16.70;99.90;;;;;;5057319;28;25064;-73
2022/10/24 02:21:37;;;;;;;1.92;1.15;;;16.70;99.90;;;;;;5058895;28;25053;-73
2022/10/24 02:24:22;;;;;;;7.93;1.58;;;16.70;99.90;;;;;;5062626;28;25081;-73
2022/10/24 02:26:47;;;;;;;5.75;1.83;;;16.70;99.90;;;;;;5080413;28;25057;-72
2022/10/24 02:29:17;;;;;;;2.67;1.30;;;16.70;99.90;;;;;;5066507;28;25107;-75
2022/10/24 02:31:50;;;;;;;5.90;1.35;;;16.70;99.90;;;;;;5074707;28;25058;-73
2022/10/24 02:34:17;;;;;;;5.75;1.27;;;16.80;99.90;;;;;;5058013;28;25075;-74
2022/10/24 02:36:45;;;;;;;3.60;1.58;;;16.80;99.90;;;;;;5061784;28;25061;-73
2022/10/24 02:39:12;;;;;;;5.30;1.70;;;16.70;99.90;;;;;;5064920;28;25149;-74
2022/10/24 02:41:40;;;;;;;5.30;1.13;;;16.80;99.90;;;;;;5052825;28;25061;-76
2022/10/24 02:44:08;;;;;;;8.93;1.17;;;16.80;99.90;;;;;;5064908;28;25086;-74
2022/10/24 02:46:34;;;;;;;5.85;0.90;;;16.70;99.90;;;;;;5072175;28;25112;-75
2022/10/24 02:49:01;;;;;;;4.28;1.08;;;16.70;99.90;;;;;;5060700;28;25110;-74
2022/10/24 02:51:34;;;;;;;1.75;0.90;;;16.70;99.90;;;;;;5077107;28;25056;-72
2022/10/24 02:54:01;;;;;;;4.72;1.23;;;16.70;99.90;;;;;;5064488;28;25068;-74
2022/10/24 02:56:27;;;;;;;5.47;1.30;;;16.70;99.90;;;;;;5050796;28;25077;-73
2022/10/24 02:58:52;;;;;;;7.43;1.10;;;16.80;99.90;;;;;;5051983;28;25053;-74
2022/10/24 03:01:18;;;;;;;6.20;1.52;;;16.70;99.90;;;;;;5070131;28;25069;-73
2022/10/24 03:03:44;;;;;;;3.92;1.27;;;16.70;99.90;;;;;;5046815;28;25174;-73
2022/10/24 03:06:10;;;;;;;2.75;1.08;;;16.70;99.90;;;;;;5072911;28;25096;-73
2022/10/24 03:08:35;;;;;;;8.02;1.50;;;16.60;99.90;;;;;;5065775;28;25137;-72
2022/10/24 03:11:01;;;;;;;3.10;1.13;;;16.60;99.90;;;;;;5073028;28;25080;-73
2022/10/24 03:13:27;;;;;;;7.05;1.17;;;16.60;99.90;;;;;;5059902;28;25080;-74
2022/10/24 03:15:52;;;;;;;8.73;2.47;;;16.50;99.90;;;;;;5071199;28;25134;-75
2022/10/24 03:18:18;;;;;;;8.00;1.30;;;16.60;99.90;;;;;;5063771;28;25099;-74
2022/10/24 03:20:44;;;;;;;4.95;1.10;;;16.50;99.90;;;;;;5070671;28;25092;-78
2022/10/24 03:23:09;;;;;;;8.18;1.70;;;16.50;99.90;;;;;;5061610;28;25062;-73
2022/10/24 03:25:35;;;;;;;4.88;1.02;;;16.50;99.90;;;;;;5064088;28;25057;-73
2022/10/24 03:28:01;;;;;;;7.85;1.45;;;16.50;99.90;;;;;;5062735;28;25100;-77
2022/10/24 03:30:26;;;;;;;5.15;1.30;;;16.40;99.90;;;;;;5051732;28;25067;-76
2022/10/24 03:32:52;;;;;;;8.05;1.08;;;16.40;99.90;;;;;;5049072;28;25054;-75
2022/10/24 03:35:17;;;;;;;7.95;1.40;;;16.50;99.90;;;;;;5058658;28;25148;-73
2022/10/24 03:37:43;;;;;;;4.90;1.00;;;16.40;99.90;;;;;;5062226;28;25109;-75
2022/10/24 03:40:10;;;;;;;2.95;1.10;;;16.40;99.90;;;;;;5066675;28;25121;-74
2022/10/24 03:42:36;;;;;;;7.10;1.77;;;16.40;99.90;;;;;;5072451;28;25057;-74
2022/10/24 03:45:02;;;;;;;25.90;1.65;;;16.40;99.90;;;;;;5061327;28;25125;-72
2022/10/24 03:47:27;;;;;;;2.72;1.00;;;16.30;99.90;;;;;;5051525;28;25057;-75
2022/10/24 03:49:53;;;;;;;10.07;1.10;;;16.40;99.90;;;;;;5056828;28;25148;-74
2022/10/24 03:52:18;;;;;;;3.45;0.77;;;16.30;99.90;;;;;;5058717;28;25093;-73
2022/10/24 03:54:44;;;;;;;5.72;1.13;;;16.40;99.90;;;;;;5065533;28;25059;-75
2022/10/24 03:57:10;;;;;;;7.10;1.90;;;16.40;99.90;;;;;;5066669;28;25096;-73
2022/10/24 03:59:36;;;;;;;4.50;1.02;;;16.40;99.90;;;;;;5070066;28;25159;-72
2022/10/24 04:02:02;;;;;;;5.38;1.23;;;16.40;99.90;;;;;;5064390;28;25079;-75
2022/10/24 04:04:28;;;;;;;5.20;1.00;;;16.40;99.90;;;;;;5064097;28;25069;-72
2022/10/24 04:06:54;;;;;;;6.25;1.33;;;16.40;99.90;;;;;;5068534;28;24793;-73
2022/10/24 04:09:20;;;;;;;10.40;1.15;;;16.50;99.90;;;;;;5069520;28;25081;-73
2022/10/24 04:11:46;;;;;;;9.05;1.33;;;16.50;99.90;;;;;;5055942;28;25065;-73
2022/10/24 04:14:13;;;;;;;8.98;1.48;;;16.60;99.90;;;;;;5063003;28;25154;-76
2022/10/24 04:16:38;;;;;;;3.53;1.27;;;16.70;99.90;;;;;;5042113;28;25145;-74
2022/10/24 04:19:04;;;;;;;4.22;1.17;;;16.70;99.90;;;;;;5059734;28;25100;-73
2022/10/24 04:21:29;;;;;;;4.28;1.02;;;16.70;99.90;;;;;;5057284;28;25120;-73
2022/10/24 04:23:55;;;;;;;8.57;1.77;;;16.70;99.90;;;;;;5065402;28;25164;-75
2022/10/24 04:26:21;;;;;;;4.07;1.30;;;16.70;99.90;;;;;;5046669;28;25071;-72
2022/10/24 04:28:47;;;;;;;5.40;1.20;;;16.70;99.90;;;;;;5055469;28;25086;-73
2022/10/24 04:31:13;;;;;;;8.73;1.15;;;16.80;99.90;;;;;;5061243;28;25098;-73
2022/10/24 04:33:39;;;;;;;3.25;0.80;;;16.80;99.90;;;;;;5056592;28;25111;-74
2022/10/24 04:36:05;;;;;;;4.47;0.93;;;16.90;99.90;;;;;;5068514;28;25153;-72
2022/10/24 04:38:31;;;;;;;6.32;1.02;;;16.90;99.90;;;;;;5056087;28;25058;-73
2022/10/24 04:40:56;;;;;;;11.77;1.95;;;16.80;99.90;;;;;;5056537;28;25056;-75
2022/10/24 04:43:22;;;;;;;5.10;0.90;;;16.80;99.90;;;;;;5065228;28;25134;-73
2022/10/24 04:45:48;;;;;;;9.70;1.45;;;16.80;99.90;;;;;;5054165;28;25063;-75
2022/10/24 04:48:15;;;;;;;9.60;1.58;;;16.80;99.90;;;;;;5060539;28;25094;-74
2022/10/24 04:50:42;;;;;;;6.30;1.27;;;16.70;99.90;;;;;;5063172;28;25096;-72
2022/10/24 04:53:08;;;;;;;2.75;0.70;;;16.70;99.90;;;;;;5042163;28;25109;-72
2022/10/24 04:55:34;;;;;;;9.07;0.85;;;16.70;99.90;;;;;;5052018;28;25110;-71
2022/10/24 04:58:00;;;;;;;4.50;1.02;;;16.70;99.90;;;;;;5063642;28;25061;-70
2022/10/24 05:00:26;;;;;;;9.85;1.70;;;16.70;99.90;;;;;;5057519;28;25132;-71
2022/10/24 05:02:51;;;;;;;2.90;0.80;;;16.70;99.90;;;;;;5055477;28;25059;-72
2022/10/24 05:05:17;;;;;;;2.28;0.63;;;16.80;99.90;;;;;;5065993;28;25114;-71
2022/10/24 05:07:44;;;;;;;4.22;1.23;;;16.70;99.90;;;;;;5065835;28;25126;-73
2022/10/24 05:10:10;;;;;;;9.43;1.20;;;16.70;99.90;;;;;;5048767;28;25050;-73
2022/10/24 05:12:37;;;;;;;5.95;1.05;;;16.80;99.90;;;;;;5076389;28;24704;-73
2022/10/24 05:15:04;;;;;;;6.32;1.27;;;16.80;99.90;;;;;;5054419;28;25091;-72
2022/10/24 05:17:29;;;;;;;5.93;0.98;;;16.70;99.90;;;;;;5065890;28;25070;-72
2022/10/24 05:19:55;;;;;;;2.33;0.82;;;16.70;99.90;;;;;;5066227;28;25063;-72
2022/10/24 05:22:21;;;;;;;4.93;1.17;;;16.70;99.90;;;;;;5065471;28;25105;-70
2022/10/24 05:24:46;;;;;;;5.25;1.08;;;16.70;99.90;;;;;;5046886;28;25108;-71
2022/10/24 05:27:12;;;;;;;11.40;1.42;;;16.70;99.90;;;;;;5061499;28;25092;-72
2022/10/24 05:29:37;;;;;;;7.10;1.90;;;16.70;99.90;;;;;;5056342;28;25109;-71
2022/10/24 05:32:03;;;;;;;8.75;2.00;;;16.80;99.90;;;;;;5059224;28;25102;-70
2022/10/24 05:34:29;;;;;;;8.05;2.78;;;16.70;99.90;;;;;;5033825;28;25085;-71
2022/10/24 05:36:54;;;;;;;6.75;1.25;;;16.70;99.90;;;;;;5045454;28;25070;-71
2022/10/24 05:39:21;;;;;;;6.90;1.30;;;16.60;99.90;;;;;;5059211;28;25054;-71
2022/10/24 05:41:47;;;;;;;7.03;1.00;;;16.60;99.90;;;;;;5069025;28;25119;-71
2022/10/24 05:44:13;;;;;;;8.38;1.13;;;16.70;99.90;;;;;;5065138;28;25449;-72
2022/10/24 05:46:39;;;;;;;8.23;1.70;;;16.70;99.90;;;;;;5079563;28;25109;-72
2022/10/24 05:49:05;;;;;;;11.90;1.45;;;16.60;99.90;;;;;;5076718;28;25077;-71
2022/10/24 05:51:30;;;;;;;5.30;1.00;;;16.60;99.90;;;;;;5079391;28;25117;-72
2022/10/24 05:53:57;;;;;;;8.02;1.67;;;16.60;99.90;;;;;;5064076;28;25070;-72
2022/10/24 05:56:23;;;;;;;6.75;1.25;;;16.70;99.90;;;;;;5078017;28;25128;-69
2022/10/24 05:58:49;;;;;;;4.35;0.88;;;16.70;99.90;;;;;;5068795;28;25079;-71
2022/10/24 06:01:15;;;;;;;5.63;1.20;;;16.80;99.90;;;;;;5072930;28;25088;-70
2022/10/24 06:03:41;;;;;;;7.38;0.90;;;16.80;99.90;;;;;;5078814;28;25063;-70
2022/10/24 06:06:08;;;;;;;9.63;1.27;;;16.70;99.90;;;;;;5080391;28;25084;-71
2022/10/24 06:08:34;;;;;;;5.82;0.85;;;16.80;99.90;;;;;;5071691;28;25094;-71
2022/10/24 06:11:00;;;;;;;9.80;1.67;;;16.80;99.90;;;;;;5074609;28;25096;-70
2022/10/24 06:13:26;;;;;;;8.93;1.83;;;16.80;99.90;;;;;;5070298;28;25103;-72
2022/10/24 06:15:51;;;;;;;8.75;1.30;;;16.70;99.90;;;;;;5076781;28;25084;-71
2022/10/24 06:18:17;;;;;;;9.35;1.50;;;16.70;99.90;;;;;;5076744;28;25048;-73
2022/10/24 06:20:43;;;;;;;7.97;1.48;;;16.80;99.90;;;;;;5073671;28;25158;-72
2022/10/24 06:23:08;;;;;;;12.18;1.50;;;16.70;99.90;;;;;;5064052;28;25067;-72
2022/10/24 06:25:34;;;;;;;8.88;1.40;;;16.70;99.90;;;;;;5061335;28;25062;-71
2022/10/24 06:27:59;;;;;;;6.85;1.45;;;16.80;99.90;;;;;;5054284;28;25106;-70
2022/10/24 06:30:25;;;;;;;9.07;1.55;;;16.70;99.90;;;;;;5069972;28;25149;-73
2022/10/24 06:32:51;;;;;;;9.63;1.35;;;16.70;99.90;;;;;;5058110;28;25117;-72
2022/10/24 06:35:18;;;;;;;4.15;1.23;;;16.70;99.90;;;;;;5060872;28;25102;-70
2022/10/24 06:37:44;;;;;;;4.32;0.98;;;16.70;99.90;;;;;;5067670;28;25063;-69
2022/10/24 06:40:10;;;;;;;6.25;1.45;;;16.70;99.90;;;;;;5064090;28;25123;-70
2022/10/24 06:42:36;;;;;;;6.47;1.33;;;16.70;99.90;;;;;;5065365;28;25074;-70
2022/10/24 06:45:02;;;;;;;6.78;1.30;;;16.70;99.90;;;;;;5059371;28;25061;-71
2022/10/24 06:47:28;;;;;;;10.18;1.60;;;16.70;99.90;;;;;;5072971;28;25150;-70
2022/10/24 06:49:53;;;;;;;11.00;2.13;;;16.70;99.90;;;;;;5074330;28;25091;-72
2022/10/24 06:52:19;;;;;;;5.88;1.27;;;16.70;99.90;;;;;;5071091;28;25110;-70
2022/10/24 06:54:45;;;;;;;6.15;1.38;;;16.70;99.90;;;;;;5072522;28;25068;-70
2022/10/24 06:57:10;;;;;;;5.93;1.13;;;16.70;99.90;;;;;;5068999;28;25060;-69
2022/10/24 06:59:36;;;;;;;6.15;1.20;;;16.70;99.90;;;;;;5074781;28;25141;-69
2022/10/24 07:02:01;;;;;;;12.60;1.58;;;16.70;99.90;;;;;;5076384;28;25131;-71
2022/10/24 07:04:28;;;;;;;7.95;1.50;;;16.70;99.90;;;;;;5069713;28;25057;-70
2022/10/24 07:06:53;;;;;;;9.18;1.90;;;16.70;99.90;;;;;;5075254;28;25064;-70
2022/10/24 07:09:19;;;;;;;6.75;1.25;;;16.70;99.90;;;;;;5076288;28;25131;-71
2022/10/24 07:11:45;;;;;;;11.18;1.77;;;16.70;99.90;;;;;;5075614;28;25106;-70
2022/10/24 07:14:11;;;;;;;5.35;1.50;;;16.70;99.90;;;;;;5078366;28;25077;-71
2022/10/24 07:16:37;;;;;;;7.90;1.52;;;16.70;99.90;;;;;;5071727;28;25118;-70
2022/10/24 07:19:04;;;;;;;11.25;2.35;;;16.60;99.90;;;;;;5073124;28;25159;-71
2022/10/24 07:21:31;;;;;;;7.78;1.85;;;16.60;99.90;;;;;;5067306;28;25047;-72
2022/10/24 07:23:58;;;;;;;8.35;1.67;;;16.60;99.90;;;;;;5076290;28;25096;-72
2022/10/24 07:26:26;;;;;;;11.48;1.98;;;16.70;99.90;;;;;;5066859;28;25159;-71
2022/10/24 07:28:54;;;;;;;8.15;1.98;;;16.70;99.90;;;;;;5054678;28;25103;-70
2022/10/24 07:31:23;;;;;;;10.32;1.75;;;16.70;99.90;;;;;;5045103;28;25059;-71
2022/10/24 07:33:50;;;;;;;6.15;1.58;;;16.70;99.90;;;;;;5054270;28;25082;-71
2022/10/24 07:36:17;;;;;;;5.55;1.77;;;16.80;99.90;;;;;;5071412;28;25054;-72
2022/10/24 07:38:43;;;;;;;9.98;1.40;;;16.80;99.90;;;;;;5057111;28;25100;-71
2022/10/24 07:41:09;;;;;;;8.20;1.38;;;16.80;99.90;;;;;;5062991;28;25079;-71
2022/10/24 07:43:34;;;;;;;6.80;1.77;;;16.70;99.90;;;;;;5045211;28;25072;-70
2022/10/24 07:46:08;;;;;;;7.90;2.35;;;16.70;99.90;;;;;;5075025;28;25141;-71
2022/10/24 07:48:34;;;;;;;5.80;1.60;;;16.60;99.90;;;;;;5081244;28;25061;-72
2022/10/24 07:51:04;;;;;;;6.53;1.10;;;16.60;99.90;;;;;;5074802;28;25074;-69
2022/10/24 07:53:30;;;;;;;8.60;1.52;;;16.70;99.90;;;;;;5043488;28;25071;-69
2022/10/24 07:55:58;;;;;;;6.50;1.35;;;16.60;99.90;;;;;;5077642;28;25080;-70
2022/10/24 07:58:24;;;;;;;6.10;1.48;;;16.70;99.90;;;;;;5061237;28;25082;-70
2022/10/24 08:00:50;;;;;;;3.58;1.00;;;16.60;99.90;;;;;;5072647;28;25060;-71
2022/10/24 08:03:17;;;;;;;6.15;1.40;;;16.60;99.90;;;;;;5061498;28;25087;-72
2022/10/24 08:05:43;;;;;;;5.90;1.60;;;16.60;99.90;;;;;;5063207;28;25128;-71
2022/10/24 08:08:09;;;;;;;7.88;2.10;;;16.60;99.90;;;;;;5042213;28;25057;-71
2022/10/24 08:10:34;;;;;;;6.70;1.13;;;16.60;99.90;;;;;;5055749;28;25109;-71
2022/10/24 08:13:00;;;;;;;5.38;1.10;;;16.70;99.90;;;;;;5075161;28;25129;-72
2022/10/24 08:15:26;;;;;;;6.35;1.45;;;16.60;99.90;;;;;;5067490;28;25060;-71
2022/10/24 08:17:53;;;;;;;4.50;1.50;;;16.60;99.90;;;;;;5072066;28;25079;-73
2022/10/24 08:20:19;;;;;;;8.57;1.38;;;16.60;99.90;;;;;;5061183;28;25176;-71
2022/10/24 08:22:45;;;;;;;5.78;1.20;;;16.60;99.90;;;;;;5055134;28;25142;-71
2022/10/24 08:25:13;;;;;;;5.45;1.20;;;16.70;99.90;;;;;;5069260;28;25049;-70
2022/10/24 08:27:39;;;;;;;4.03;1.15;;;16.70;99.90;;;;;;5071703;28;25092;-71
2022/10/24 08:30:05;;;;;;;10.52;1.27;;;16.70;99.90;;;;;;5065578;28;25095;-73
2022/10/24 08:32:31;;;;;;;9.23;1.50;;;16.70;99.90;;;;;;5066984;28;25056;-71
2022/10/24 08:34:57;;;;;;;3.17;0.98;;;16.80;99.90;;;;;;5068621;28;25159;-72
2022/10/24 08:37:22;;;;;;;3.50;0.90;;;16.70;99.90;;;;;;5056708;28;25142;-72
2022/10/24 08:39:48;;;;;;;9.52;1.38;;;16.80;99.90;;;;;;5070915;28;25061;-72
2022/10/24 08:42:15;;;;;;;7.53;1.45;;;16.70;99.90;;;;;;5078614;28;25156;-71
2022/10/24 08:44:43;;;;;;;9.80;1.67;;;16.70;99.90;;;;;;5070652;28;25080;-71
2022/10/24 08:47:28;;;;;;;11.45;2.35;;;16.70;99.90;;;;;;5072576;28;25095;-72
2022/10/24 08:50:15;;;;;;;6.53;2.10;;;16.80;99.90;;;;;;5076696;28;25078;-71
2022/10/24 08:52:46;;;;;;;5.65;1.10;;;17.00;99.90;;;;;;5067429;28;25076;-74
2022/10/24 08:55:19;;;;;;;3.28;1.10;;;17.10;99.90;;;;;;5067095;28;25070;-72
2022/10/24 08:57:49;;;;;;;7.55;1.60;;;17.10;99.90;;;;;;5050380;28;25124;-69
2022/10/24 09:00:22;;;;;;;7.03;1.27;;;17.00;99.90;;;;;;5075962;28;25089;-72
2022/10/24 09:02:59;;;;;;;7.47;1.63;;;17.00;99.90;;;;;;5072573;28;25108;-72
2022/10/24 09:05:39;;;;;;;6.00;1.20;;;16.90;99.90;;;;;;5070712;28;25052;-70
2022/10/24 09:08:21;;;;;;;5.97;1.20;;;16.70;99.90;;;;;;5054406;28;25073;-70
2022/10/24 09:10:59;;;;;;;11.07;1.35;;;16.70;99.90;;;;;;5069411;28;25058;-72
2022/10/24 09:13:26;;;;;;;4.65;1.30;;;16.50;99.90;;;;;;5074346;28;25140;-72
2022/10/24 09:15:52;;;;;;;6.93;1.50;;;16.50;99.90;;;;;;5069611;28;25116;-70
2022/10/24 09:18:36;;;;;;;7.25;1.42;;;16.50;99.90;;;;;;5078622;28;25162;-71
2022/10/24 09:21:05;;;;;;;4.68;2.00;;;16.40;99.90;;;;;;5085450;28;25116;-73
2022/10/24 09:23:32;;;;;;;7.20;1.25;;;16.40;99.90;;;;;;5059806;28;24938;-73
2022/10/24 09:25:59;;;;;;;3.97;1.27;;;16.50;99.90;;;;;;5060114;28;25046;-71
2022/10/24 09:28:25;;;;;;;10.82;2.70;;;16.50;99.90;;;;;;5072276;28;25055;-72
2022/10/24 09:30:51;;;;;;;7.43;1.80;;;16.70;99.90;;;;;;5074830;28;25058;-71
2022/10/24 09:33:39;;;;;;;3.53;1.35;;;16.70;99.90;;;;;;5066729;28;25056;-72
2022/10/24 09:36:10;;;;;;;6.97;1.98;;;16.70;99.90;;;;;;5072888;28;25058;-72
2022/10/24 09:38:37;;;;;;;5.97;1.50;;;16.80;99.90;;;;;;5081875;28;25075;-72
2022/10/24 09:41:25;;;;;;;7.93;1.33;;;16.70;99.90;;;;;;5074235;28;25084;-71
2022/10/24 09:43:56;;;;;;;7.05;1.50;;;16.50;99.90;;;;;;5078461;28;25111;-70
2022/10/24 09:46:28;;;;;;;3.42;1.13;;;16.50;99.90;;;;;;5079071;28;25095;-72
2022/10/24 09:49:11;;;;;;;2.53;1.10;;;16.50;99.90;;;;;;5073241;28;25089;-72
2022/10/24 09:51:44;;;;;;;7.82;1.55;;;16.50;99.90;;;;;;5078919;28;25082;-73
2022/10/24 09:54:19;;;;;;;14.32;1.80;;;16.50;99.90;;;;;;5077973;28;25130;-73
2022/10/24 09:57:09;;;;;;;9.40;2.28;;;16.60;99.90;;;;;;5075790;28;25079;-71
2022/10/24 09:59:41;;;;;;;8.05;1.58;;;16.80;99.90;;;;;;5074297;28;25112;-72
2022/10/24 10:02:23;;;;;;;10.90;1.20;;;16.80;99.90;;;;;;5072249;28;25094;-72
2022/10/24 10:05:17;;;;;;;7.28;1.00;;;16.90;99.90;;;;;;5080291;28;25073;-72
2022/10/24 10:07:47;;;;;;;5.25;1.20;;;17.00;99.90;;;;;;5034601;28;25169;-71
2022/10/24 10:10:34;;;;;;;7.32;1.20;;;17.10;99.90;;;;;;5060128;28;25099;-71
2022/10/24 10:13:17;;;;;;;4.30;1.50;;;17.20;99.90;;;;;;5070703;28;25056;-70
2022/10/24 10:15:42;;;;;;;9.48;1.33;;;17.10;99.90;;;;;;5073696;28;25085;-70
2022/10/24 10:18:41;;;;;;;7.70;1.13;;;17.00;99.90;;;;;;5081778;28;25093;-72
2022/10/24 10:21:06;;;;;;;10.57;1.33;;;16.90;99.90;;;;;;5063577;28;25063;-73
2022/10/24 10:23:35;;;;;;;8.55;1.20;;;16.80;99.90;;;;;;5069299;28;25108;-71
2022/10/24 10:26:22;;;;;;;11.00;2.00;;;16.70;99.90;;;;;;5082005;28;25112;-73
2022/10/24 10:28:55;;;;;;;5.90;1.30;;;16.60;99.90;;;;;;5076366;28;25134;-74
2022/10/24 10:31:39;;;;;;;6.30;1.83;;;16.60;99.90;;;;;;5058190;28;25070;-70
2022/10/24 10:34:29;;;;;;;2.80;0.95;;;16.60;99.90;;;;;;5054457;28;25055;-70
2022/10/24 10:37:24;;;;;;;4.57;1.35;;;16.60;99.90;;;;;;5069515;28;25111;-71
2022/10/24 10:40:14;;;;;;;3.45;1.02;;;16.50;99.90;;;;;;5077231;28;25090;-71
2022/10/24 10:42:59;;;;;;;2.13;1.02;;;16.60;99.90;;;;;;5071627;28;25078;-71
2022/10/24 10:45:41;;;;;;;5.20;1.95;;;16.60;99.90;;;;;;5057185;28;25117;-71
2022/10/24 10:48:24;;;;;;;4.78;1.48;;;16.60;99.90;;;;;;5072370;28;25095;-71
2022/10/24 10:51:02;;;;;;;2.28;1.23;;;16.60;99.90;;;;;;5068374;28;25126;-71
2022/10/24 10:53:58;;;;;;;5.40;2.05;;;16.50;99.90;;;;;;5072929;28;25054;-71
2022/10/24 10:56:50;;;;;;;6.13;2.25;;;16.50;99.90;;;;;;5078490;28;25059;-73
2022/10/24 10:59:22;;;;;;;8.18;1.25;;;16.80;99.90;;;;;;5072860;28;25057;-71
2022/10/24 11:02:10;;;;;;;10.82;1.52;;;16.80;99.90;;;;;;5078431;28;25060;-70
2022/10/24 11:04:41;;;;;;;7.20;1.85;;;17.00;99.90;;;;;;5080645;28;25084;-73
2022/10/24 11:07:50;;;;;;;7.00;1.83;;;17.00;99.90;;;;;;5070414;28;25127;-74
2022/10/24 11:10:21;;;;;;;8.15;1.75;;;17.00;99.90;;;;;;5081173;28;25073;-70
2022/10/24 11:12:47;;;;;;;5.53;1.58;;;17.00;99.90;;;;;;5072612;28;25124;-72
2022/10/24 11:15:35;;;;;;;7.43;1.50;;;16.90;99.90;;;;;;5078218;28;25057;-72
2022/10/24 11:18:16;;;;;;;4.97;1.17;;;16.90;99.90;;;;;;5081015;28;25125;-72
2022/10/24 11:21:12;;;;;;;13.68;1.60;;;16.80;99.90;;;;;;5072269;28;25149;-71
2022/10/24 11:23:48;;;;;;;3.95;1.17;;;16.80;99.90;;;;;;5070872;28;25059;-72
2022/10/24 11:27:00;;;;;;;7.68;1.98;;;16.70;99.90;;;;;;5079464;28;25131;-70
2022/10/24 11:29:33;;;;;;;8.13;1.80;;;16.70;99.90;;;;;;5046154;28;25149;-71
2022/10/24 11:32:06;;;;;;;5.32;1.60;;;16.60;99.90;;;;;;5076156;28;25166;-73
2022/10/24 11:34:43;;;;;;;10.82;1.27;;;16.60;99.90;;;;;;5072916;28;25120;-72
2022/10/24 11:37:17;;;;;;;5.97;1.55;;;16.50;99.90;;;;;;5070525;28;25078;-70
2022/10/24 11:40:16;;;;;;;6.50;1.88;;;16.60;99.90;;;;;;5072573;28;25040;-71
2022/10/24 11:42:52;;;;;;;6.38;1.27;;;16.60;99.90;;;;;;5073660;28;25071;-70
2022/10/24 11:45:20;;;;;;;9.38;1.33;;;16.50;99.90;;;;;;5064841;28;25118;-71
2022/10/24 11:48:12;;;;;;;2.60;1.10;;;16.50;99.90;;;;;;5054019;28;25087;-69
2022/10/24 11:51:26;;;;;;;5.78;1.30;;;16.60;99.90;;;;;;5057856;28;25077;-71
2022/10/24 11:53:57;;;;;;;1.92;0.95;;;16.60;99.90;;;;;;4987086;28;25080;-70
2022/10/24 11:56:44;;;;;;;7.70;1.40;;;16.60;99.90;;;;;;5066796;28;25111;-70
2022/10/24 11:59:22;;;;;;;5.72;1.45;;;16.80;99.90;;;;;;5062464;28;25102;-70
2022/10/24 12:01:54;;;;;;;2.95;1.58;;;16.80;99.90;;;;;;5072335;28;25179;-71
2022/10/24 12:04:34;;;;;;;8.13;1.30;;;16.80;99.90;;;;;;5076779;28;25059;-70
2022/10/24 12:07:22;;;;;;;10.77;2.17;;;16.90;99.90;;;;;;5039836;28;25148;-70
2022/10/24 12:09:50;;;;;;;16.60;2.10;;;17.00;99.90;;;;;;5070430;28;25096;-70
2022/10/24 12:12:36;;;;;;;10.13;1.60;;;16.90;99.90;;;;;;5074002;28;25059;-70
2022/10/24 12:15:16;;;;;;;8.70;1.67;;;16.90;99.90;;;;;;5016987;28;25069;-69
2022/10/24 12:17:51;;;;;;;9.75;1.52;;;16.90;99.90;;;;;;5067798;28;25076;-70
2022/10/24 12:20:20;;;;;;;9.93;1.60;;;16.80;99.90;;;;;;5053952;28;25062;-71
2022/10/24 12:22:47;;;;;;;11.45;2.20;;;16.70;99.90;;;;;;5063422;28;25065;-70
2022/10/24 12:25:37;;;;;;;13.25;2.40;;;16.70;99.90;;;;;;5064005;28;25058;-72
2022/10/24 12:28:03;;;;;;;8.40;1.83;;;16.70;99.90;;;;;;5055655;28;25090;-72
2022/10/24 12:30:34;;;;;;;7.68;1.90;;;16.60;99.90;;;;;;5069803;28;24969;-71
2022/10/24 12:33:23;;;;;;;5.10;1.92;;;16.50;99.90;;;;;;5057951;28;25063;-70
2022/10/24 12:35:53;;;;;;;6.25;1.58;;;16.50;99.90;;;;;;5062825;28;25063;-70
2022/10/24 12:38:27;;;;;;;3.42;1.30;;;16.50;99.90;;;;;;5066613;28;25080;-72
2022/10/24 12:40:56;;;;;;;7.97;1.88;;;16.60;99.90;;;;;;5049071;28;25206;-70
2022/10/24 12:43:39;;;;;;;7.95;1.60;;;16.70;99.90;;;;;;5073442;28;25065;-72
2022/10/24 12:46:14;;;;;;;4.68;1.55;;;16.70;99.90;;;;;;5068589;28;25097;-71
2022/10/24 12:49:04;;;;;;;3.50;1.52;;;16.70;99.90;;;;;;5060513;28;25076;-69
2022/10/24 12:51:35;;;;;;;5.05;1.52;;;16.70;99.90;;;;;;5070551;28;25072;-70
2022/10/24 12:54:10;;;;;;;4.65;1.20;;;16.70;99.90;;;;;;5046037;28;25098;-71
2022/10/24 12:56:48;;;;;;;4.55;1.20;;;16.70;99.90;;;;;;5061186;28;25099;-71
2022/10/24 12:59:31;;;;;;;3.67;1.30;;;16.90;99.90;;;;;;5052019;28;25112;-68
2022/10/24 13:02:12;;;;;;;8.88;1.10;;;17.00;99.90;;;;;;5045005;28;25118;-72
2022/10/24 13:04:55;;;;;;;3.70;1.38;;;17.20;99.90;;;;;;5055283;28;25093;-70
2022/10/24 13:07:38;;;;;;;5.05;1.52;;;17.20;99.90;;;;;;5070003;28;25159;-69